Weather at Zürich Airport

Public forecast

Using degrees Celsius for public forecast. Weather courtesy of forecast.io.

Current aviation weather report (METAR) for Zürich Airport

Retrieved 2021/10/19 20:20 UTC (15 minutes ago):

LSZH 192020Z VRB03KT 9000 BCFG NSC 07/06 Q1024 TEMPO 3500

Aviation forecast (TAF) for Zürich Airport

Retrieved 2021/10/19 21:35 UTC (0 seconds ago):

TAF LSZH 192025Z 1921/2103 VRB02KT 9000 MIFG NSC TX20/2015Z TN05/2004Z BECMG 1921/1924 3500 BCFG FEW002 PROB40 TEMPO 1922/2007 1000 PRFG SCT002 BECMG 2007/2009 CAVOK BECMG 2010/2012 23010KT TEMPO 2013/2019 9999 SCT060 BECMG 2019/2022 9999 BKN060 TEMPO 2100/2103 SHRA